• Join FlightAware (Why Join?)
  • Login
  • US Flag 
02:14AM EDT


 

Airport Tracker/Info


-or-


 

Live Flight TrackerFlight Track Log ✈ ANT505 ✈ 20-Aug-2013 ✈ CYXY - CYVR

Flight Track Log - Related Links

Times and Time Zones

All times are in EDT time to prevent confusion due to time zone crossing. See the ANT505 flight status page for this flight to view local times or setup timezone preferences in your user account.

Time Position Orientation Groundspeed Altitude Reporting Facility
EDT Latitude Longitude Course Direction KTS MPH feet Rate Location/Type
11:06AM 60.1150 -134.1165 141° Southeast  Level FlightAware Approximate
11:07AM 60.0295 -133.9835 142° Southeast  Level FlightAware Approximate
11:08AM 59.9439 -133.8512 142° Southeast  Level FlightAware Approximate
11:09AM 59.8581 -133.7195 142° Southeast  Level FlightAware Approximate
11:10AM 59.7723 -133.5886 142° Southeast  Level FlightAware Approximate
11:11AM 59.6862 -133.4583 143° Southeast  Level FlightAware Approximate
11:12AM 59.6001 -133.3287 143° Southeast  Level FlightAware Approximate
11:13AM 59.5139 -133.1997 143° Southeast  Level FlightAware Approximate
11:14AM 59.4275 -133.0714 143° Southeast  Level FlightAware Approximate
11:15AM 59.3409 -132.9437 143° Southeast  Level FlightAware Approximate
11:16AM 59.2543 -132.8167 143° Southeast  Level FlightAware Approximate
11:17AM 59.1675 -132.6904 143° Southeast  Level FlightAware Approximate
11:18AM 59.0768 -132.5753 143° Southeast  Level Estimated
11:19AM 58.9903 -132.4490 143° Southeast  Level FlightAware Approximate
11:20AM 58.9037 -132.3232 143° Southeast  Level FlightAware Approximate
11:21AM 58.8170 -132.1981 143° Southeast  Level FlightAware Approximate
11:22AM 58.7301 -132.0736 143° Southeast  Level FlightAware Approximate
11:23AM 58.6431 -131.9497 143° Southeast  Level FlightAware Approximate
11:24AM 58.5560 -131.8264 144° Southeast  Level FlightAware Approximate
11:25AM 58.4688 -131.7038 144° Southeast  Level FlightAware Approximate
11:26AM 58.3815 -131.5818 144° Southeast  Level FlightAware Approximate
11:27AM 58.2940 -131.4603 144° Southeast  Level FlightAware Approximate
11:28AM 58.2065 -131.3395 144° Southeast  Level FlightAware Approximate
11:29AM 58.1188 -131.2192 144° Southeast  Level FlightAware Approximate
11:30AM 58.0310 -131.0996 144° Southeast  Level FlightAware Approximate
11:31AM 57.9431 -130.9805 144° Southeast  Level FlightAware Approximate
11:32AM 57.8551 -130.8620 144° Southeast  Level FlightAware Approximate
11:33AM 57.7670 -130.7441 144° Southeast  Level FlightAware Approximate
11:34AM 57.6787 -130.6268 145° Southeast  Level FlightAware Approximate
11:35AM 57.5856 -130.5239 144° Southeast  Level Estimated
11:36AM 57.4988 -130.4035 143° Southeast  Level FlightAware Approximate
11:37AM 57.4118 -130.2837 143° Southeast  Level FlightAware Approximate
11:38AM 57.3248 -130.1645 143° Southeast  Level FlightAware Approximate
11:39AM 57.2376 -130.0458 144° Southeast  Level FlightAware Approximate
11:39AM 57.1167 -129.9333 152° Southeast 440 506 37,000  Level Vancouver Center
11:40AM 57.1504 -129.9277 144° Southeast  Level FlightAware Approximate
11:40AM 57.0167 -129.8000 144° Southeast 430 495 37,000  Level Vancouver Center
11:41AM 57.0630 -129.8101 144° Southeast  Level FlightAware Approximate
11:41AM 56.9333 -129.6667 139° Southeast 430 495 37,000  Level Vancouver Center
11:42AM 56.9755 -129.6931 144° Southeast  Level FlightAware Approximate
11:42AM 56.8333 -129.5500 147° Southeast 440 506 37,000  Level Vancouver Center
11:43AM 56.8879 -129.5767 144° Southeast  Level FlightAware Approximate
11:43AM 56.7167 -129.4167 148° Southeast 430 495 37,000  Level Vancouver Center
11:44AM 56.8002 -129.4608 144° Southeast  Level FlightAware Approximate
11:44AM 56.6333 -129.3167 147° Southeast 440 506 37,000  Level Vancouver Center
11:45AM 56.7055 -129.3653 152° Southeast  Level Estimated
11:45AM 56.5167 -129.2333 158° South 440 506 37,000  Level Vancouver Center
11:46AM 56.4000 -129.1333 155° Southeast 440 506 37,000  Level Vancouver Center
11:47AM 56.3000 -129.0167 147° Southeast 440 506 37,000  Level Vancouver Center
11:48AM 56.2000 -128.9167 151° Southeast 440 506 37,000  Level Vancouver Center
11:49AM 56.0833 -128.8167 154° Southeast 440 506 37,000  Level Vancouver Center
11:50AM 55.9667 -128.7167 154° Southeast 450 518 37,000  Level Vancouver Center
11:51AM 55.8500 -128.6167 154° Southeast 440 506 37,000  Level Vancouver Center
11:52AM 55.7500 -128.5000 147° Southeast 440 506 37,000  Level Vancouver Center
11:53AM 55.6500 -128.4000 151° Southeast 440 506 37,000  Level Vancouver Center
11:54AM 55.5333 -128.3000 154° Southeast 440 506 37,000  Level Vancouver Center
11:55AM 55.4167 -128.2000 154° Southeast 450 518 37,000  Level Vancouver Center
11:56AM 55.3167 -128.1000 150° Southeast 450 518 37,000  Level Vancouver Center
11:57AM 55.2000 -128.0000 154° Southeast 440 506 37,000  Level Vancouver Center
11:58AM 55.1000 -127.9000 150° Southeast 450 518 37,000  Level Vancouver Center
11:59AM 54.9833 -127.8000 154° Southeast 450 518 37,000  Level Vancouver Center
12:00PM 54.8667 -127.7167 158° South 450 518 37,000  Level Vancouver Center
12:01PM 54.7500 -127.6167 154° Southeast 450 518 37,000  Level Vancouver Center
12:02PM 54.6333 -127.5167 154° Southeast 450 518 37,000  Level Vancouver Center
12:03PM 54.5333 -127.4167 150° Southeast 470 541 37,000  Level Vancouver Center
12:04PM 54.4167 -127.3167 153° Southeast 450 518 37,000  Level Vancouver Center
12:05PM 54.3000 -127.2333 157° South 450 518 37,000  Level Vancouver Center
12:06PM 54.2000 -127.1333 150° Southeast 440 506 37,000  Level Vancouver Center
12:07PM 54.0833 -127.0333 153° Southeast 450 518 37,000  Level Vancouver Center
12:08PM 53.9667 -126.9500 157° South 450 518 37,000  Level Vancouver Center
12:09PM 53.8500 -126.8500 153° Southeast 450 518 37,000  Level Vancouver Center
12:10PM 53.7500 -126.7667 154° Southeast 450 518 37,000  Level Vancouver Center
12:11PM 53.6500 -126.6667 149° Southeast 450 518 37,000  Level Vancouver Center
12:12PM 53.5167 -126.5833 160° South 450 518 37,000  Level Vancouver Center
12:13PM 53.4167 -126.4833 149° Southeast 450 518 37,000  Level Vancouver Center
12:14PM 53.3000 -126.4000 157° South 450 518 37,000  Level Vancouver Center
12:15PM 53.1833 -126.3000 153° Southeast 450 518 37,000  Level Vancouver Center
12:16PM 53.0833 -126.2167 153° Southeast 440 506 37,000  Level Vancouver Center
12:17PM 52.9500 -126.1167 156° South 450 518 37,000  Level Vancouver Center
12:18PM 52.8500 -126.0333 153° Southeast 450 518 37,000  Level Vancouver Center
12:19PM 52.7500 -125.9500 153° Southeast 450 518 37,000  Level Vancouver Center
12:20PM 52.6333 -125.8667 157° South 450 518 37,000  Level Vancouver Center
12:21PM 52.5167 -125.7667 152° Southeast 460 529 37,000  Level Vancouver Center
12:22PM 52.4000 -125.6833 156° South 450 518 37,000  Level Vancouver Center
12:23PM 52.2833 -125.6000 156° South 450 518 37,000  Level Vancouver Center
12:24PM 52.1667 -125.5167 156° South 440 506 37,000  Level Vancouver Center
12:25PM 52.0667 -125.4333 153° Southeast 440 506 37,000  Level Vancouver Center
12:26PM 51.9500 -125.3500 156° South 440 506 37,000  Level Vancouver Center
12:27PM 51.8333 -125.2500 152° Southeast 450 518 37,000  Level Vancouver Center
12:28PM 51.7167 -125.1667 156° South 450 518 37,000  Level Vancouver Center
12:29PM 51.6000 -125.0833 156° South 450 518 37,000  Level Vancouver Center
12:30PM 51.4833 -125.0000 156° South 450 518 37,000  Level Vancouver Center
12:31PM 51.3833 -124.9167 153° Southeast 450 518 37,000  Level Vancouver Center
12:32PM 51.2500 -124.8333 159° South 450 518 37,000  Level Vancouver Center
12:33PM 51.1500 -124.7500 152° Southeast 450 518 37,000  Level Vancouver Center
12:34PM 51.0333 -124.6667 156° South 450 518 37,000  Level Vancouver Center
12:35PM 50.9167 -124.6000 160° South 450 518 37,000  Level Vancouver Center
12:36PM 50.8167 -124.5167 152° Southeast 440 506 37,000 -120 Level Vancouver Center
12:37PM 50.7000 -124.4333 156° South 440 506 36,800 -1,500 Descending Vancouver Center
12:38PM 50.5833 -124.3500 156° South 440 506 34,000 -3,000 Descending Vancouver Center
12:39PM 50.4667 -124.2667 156° South 450 518 30,800 -2,100 Descending Vancouver Center
12:40PM 50.3500 -124.1833 155° Southeast 460 529 29,800 -900 Descending Vancouver Center
12:41PM 50.2333 -124.0833 151° Southeast 450 518 29,000 -900 Descending Vancouver Center
12:42PM 50.1333 -124.0000 152° Southeast 440 506 28,100 -1,620 Descending Vancouver Center
12:43PM 50.0333 -123.9333 157° South 420 483 25,800 -2,400 Descending Vancouver Center
12:44PM 49.9333 -123.8500 152° Southeast 410 472 23,400 -2,340 Descending Vancouver Center
12:45PM 49.8333 -123.7667 152° Southeast 410 472 21,200 -2,220 Descending Vancouver Center
12:46PM 49.7333 -123.6667 147° Southeast 400 460 19,000 -2,220 Descending Vancouver Center
12:47PM 49.6333 -123.6167 162° South 390 449 16,800 -2,160 Descending Vancouver Center
12:48PM 49.5500 -123.5500 153° Southeast 380 437 14,700 -1,800 Descending Vancouver Center
12:49PM 49.4500 -123.4667 152° Southeast 360 414 13,200 -1,380 Descending Vancouver Center
12:50PM 49.3833 -123.3833 141° Southeast 330 380 12,000 -1,140 Descending Vancouver Center
12:51PM 49.3000 -123.3333 159° South 300 345 11,000 -1,020 Descending Vancouver Center
12:52PM 49.2667 -123.2333 117° Southeast 270 311 10,000 -1,080 Descending Vancouver Center
12:53PM 49.2500 -123.1333 104° East 260 299 8,900 -1,020 Descending Vancouver Center
12:54PM 49.2333 -123.0333 104° East 250 288 8,000 -900 Descending Vancouver Center
12:55PM 49.2333 -122.9500 90° East 230 265 7,200 -1,200 Descending Vancouver Center
12:56PM 49.2167 -122.8500 104° East 210 242 5,700 -1,380 Descending Vancouver Center
12:57PM 49.2000 -122.7833 111° Southeast 210 242 4,500 -1,260 Descending Vancouver Center
12:58PM 49.1667 -122.8000 198° South 200 230 3,200 -780 Descending Vancouver Center
12:59PM 49.1500 -122.8833 253° West 200 230 3,000 -420 Descending Vancouver Center
01:00PM 49.1667 -122.9833 284° West 200 230 2,400 -900 Descending Vancouver Center
01:01PM 49.1667 -123.0667 270° West 200 230 1,300 -900 Descending Vancouver Center
01:02PM 49.1833 -123.1167 297° West 150 173 600 -720 Descending Vancouver Center